createdAt,value
2017-04-09T00:00:13.329Z,12.31
2017-04-09T00:00:39.435Z,12.22
2017-04-09T00:01:05.551Z,12.25
2017-04-09T00:01:31.679Z,12.32
2017-04-09T00:01:57.822Z,12.28
2017-04-09T00:02:23.873Z,12.24
2017-04-09T00:02:50.130Z,12.21
2017-04-09T00:03:16.315Z,12.28
2017-04-09T00:03:42.439Z,12.29
2017-04-09T00:04:08.588Z,12.24
2017-04-09T00:04:34.702Z,12.2
2017-04-09T00:05:00.841Z,12.27
2017-04-09T00:05:26.922Z,12.24
2017-04-09T00:05:53.028Z,12.15
2017-04-09T00:06:19.108Z,12.12
2017-04-09T00:06:45.234Z,12.28
2017-04-09T00:07:11.316Z,12.27
2017-04-09T00:07:37.442Z,12.2
2017-04-09T00:08:03.658Z,12.28
2017-04-09T00:08:29.756Z,12.17
2017-04-09T00:08:55.840Z,12.21
2017-04-09T00:09:21.963Z,12.2
2017-04-09T00:09:48.094Z,12.17
2017-04-09T00:10:14.179Z,12.24
2017-04-09T00:10:40.282Z,12.13
2017-04-09T00:11:06.406Z,12.24
2017-04-09T00:11:32.467Z,12.1
2017-04-09T00:11:58.547Z,12.09
2017-04-09T00:12:24.630Z,12.1
2017-04-09T00:12:50.733Z,12.15
2017-04-09T00:13:16.812Z,12.09
2017-04-09T00:13:42.895Z,12.09
2017-04-09T00:14:09.004Z,12.07
2017-04-09T00:14:35.104Z,12.07
2017-04-09T00:15:01.286Z,12.04
2017-04-09T00:15:27.392Z,12.13
2017-04-09T00:15:53.473Z,12.15
2017-04-09T00:16:19.552Z,12.06
2017-04-09T00:16:45.656Z,12.07
2017-04-09T00:17:11.740Z,12.09
2017-04-09T00:17:37.838Z,12.07
2017-04-09T00:18:03.918Z,12.12
2017-04-09T00:18:29.999Z,12.15
2017-04-09T00:18:56.082Z,12.09
2017-04-09T00:19:22.183Z,12.17
2017-04-09T00:19:48.264Z,12.18
2017-04-09T00:20:14.342Z,12.17
2017-04-09T00:20:40.420Z,12.07
2017-04-09T00:21:06.501Z,12.17
2017-04-09T00:21:32.584Z,12.22
2017-04-09T00:21:58.688Z,12.2
2017-04-09T00:22:24.766Z,12.18
2017-04-09T00:22:50.848Z,12.22
2017-04-09T00:23:16.933Z,12.22
2017-04-09T00:23:43.015Z,12.18
2017-04-09T00:24:09.096Z,12.22
2017-04-09T00:24:35.174Z,12.21
2017-04-09T00:25:01.257Z,12.2
2017-04-09T00:25:27.341Z,12.1
2017-04-09T00:25:53.449Z,12.1
2017-04-09T00:26:19.596Z,12
2017-04-09T00:26:45.717Z,11.91
2017-04-09T00:27:11.826Z,11.87
2017-04-09T00:27:37.942Z,11.86
2017-04-09T00:28:04.045Z,11.87
2017-04-09T00:28:30.127Z,11.87
2017-04-09T00:28:56.210Z,11.95
2017-04-09T00:29:22.306Z,11.9
2017-04-09T00:29:48.387Z,11.95
2017-04-09T00:30:14.492Z,11.91
2017-04-09T00:30:40.800Z,11.99
2017-04-09T00:31:06.882Z,12
2017-04-09T00:31:32.978Z,12
2017-04-09T00:31:59.083Z,11.97
2017-04-09T00:32:25.164Z,11.99
2017-04-09T00:32:51.270Z,12.02
2017-04-09T00:33:17.345Z,11.99
2017-04-09T00:33:43.529Z,12
2017-04-09T00:34:09.684Z,12
2017-04-09T00:34:35.811Z,11.97
2017-04-09T00:35:01.902Z,11.91
2017-04-09T00:35:28.039Z,11.95
2017-04-09T00:35:54.239Z,12.04
2017-04-09T00:36:20.334Z,12.06
2017-04-09T00:36:46.414Z,11.97
2017-04-09T00:37:12.496Z,12.02
2017-04-09T00:37:38.630Z,11.97
2017-04-09T00:38:04.783Z,11.91
2017-04-09T00:38:30.896Z,11.95
2017-04-09T00:38:57.004Z,11.99
2017-04-09T00:39:23.107Z,12.04
2017-04-09T00:39:49.234Z,12.1
2017-04-09T00:40:15.384Z,12.04
2017-04-09T00:40:41.506Z,12.09
2017-04-09T00:41:07.603Z,12.03
2017-04-09T00:41:33.679Z,12.1
2017-04-09T00:41:59.821Z,12.03
2017-04-09T00:42:25.903Z,12.1
2017-04-09T00:42:52.015Z,11.91
2017-04-09T00:43:18.143Z,11.99
2017-04-09T00:43:44.240Z,11.91
2017-04-09T00:44:10.321Z,11.88
2017-04-09T00:44:36.425Z,11.91
2017-04-09T00:45:02.533Z,11.91
2017-04-09T00:45:28.615Z,11.91
2017-04-09T00:45:54.717Z,11.81
2017-04-09T00:46:20.826Z,11.84
2017-04-09T00:46:46.935Z,11.81
2017-04-09T00:47:13.126Z,11.87
2017-04-09T00:47:39.201Z,11.86
2017-04-09T00:48:05.278Z,11.81
2017-04-09T00:48:31.364Z,11.86
2017-04-09T00:48:57.440Z,11.88
2017-04-09T00:49:23.725Z,11.84
2017-04-09T00:49:49.855Z,11.86
2017-04-09T00:50:15.942Z,11.8
2017-04-09T00:50:42.024Z,11.83
2017-04-09T00:51:08.109Z,11.81
2017-04-09T00:51:34.253Z,11.86
2017-04-09T00:52:00.398Z,11.84
2017-04-09T00:52:26.557Z,11.84
2017-04-09T00:52:52.683Z,11.83
2017-04-09T00:53:18.807Z,11.83
2017-04-09T00:53:44.920Z,11.8
2017-04-09T00:54:11.052Z,11.86
2017-04-09T00:54:37.156Z,11.78
2017-04-09T00:55:03.285Z,11.78
2017-04-09T00:55:29.361Z,11.8
2017-04-09T00:55:55.475Z,11.75
2017-04-09T00:56:21.580Z,11.84
2017-04-09T00:56:47.670Z,11.78
2017-04-09T00:57:13.812Z,11.81
2017-04-09T00:57:39.905Z,11.78
2017-04-09T00:58:05.991Z,11.83
2017-04-09T00:58:32.093Z,11.73
2017-04-09T00:58:58.272Z,11.77
2017-04-09T00:59:24.379Z,11.78
2017-04-09T00:59:50.501Z,11.7
2017-04-09T01:00:16.680Z,11.68
2017-04-09T01:00:42.712Z,11.69
2017-04-09T01:01:08.926Z,11.69
2017-04-09T01:01:35.006Z,11.78
2017-04-09T01:02:01.090Z,11.69
2017-04-09T01:02:27.171Z,11.75
2017-04-09T01:02:53.248Z,11.77
2017-04-09T01:03:19.327Z,11.81
2017-04-09T01:03:45.407Z,11.77
2017-04-09T01:04:11.485Z,11.77
2017-04-09T01:04:37.591Z,11.77
2017-04-09T01:05:03.720Z,11.8
2017-04-09T01:05:29.803Z,11.8
2017-04-09T01:05:55.882Z,11.7
2017-04-09T01:06:21.960Z,11.68
2017-04-09T01:06:48.088Z,11.72
2017-04-09T01:07:14.170Z,11.73
2017-04-09T01:07:40.252Z,11.7
2017-04-09T01:08:06.357Z,11.69
2017-04-09T01:08:32.461Z,11.66
2017-04-09T01:08:58.566Z,11.7
2017-04-09T01:09:24.695Z,11.65
2017-04-09T01:09:50.793Z,11.66
2017-04-09T01:10:16.872Z,11.63
2017-04-09T01:10:42.953Z,11.62
2017-04-09T01:11:09.058Z,11.7
2017-04-09T01:11:35.142Z,11.72
2017-04-09T01:12:01.221Z,11.72
2017-04-09T01:12:27.345Z,11.65
2017-04-09T01:12:53.448Z,11.63
2017-04-09T01:13:19.577Z,11.7
2017-04-09T01:13:45.705Z,11.65
2017-04-09T01:14:11.804Z,11.68
2017-04-09T01:14:37.907Z,11.7
2017-04-09T01:15:04.034Z,11.7
2017-04-09T01:15:30.116Z,11.69
2017-04-09T01:15:56.268Z,11.72
2017-04-09T01:16:22.350Z,11.72
2017-04-09T01:16:48.427Z,11.69
2017-04-09T01:17:14.510Z,11.66
2017-04-09T01:17:40.593Z,11.65
2017-04-09T01:18:06.695Z,11.63
2017-04-09T01:18:32.800Z,11.63
2017-04-09T01:18:58.925Z,11.63
2017-04-09T01:19:25.054Z,11.63
2017-04-09T01:19:51.178Z,11.65
2017-04-09T01:20:17.259Z,11.69
2017-04-09T01:20:43.336Z,11.68
2017-04-09T01:21:09.417Z,11.59
2017-04-09T01:21:35.496Z,11.62
2017-04-09T01:22:01.575Z,11.6
2017-04-09T01:22:27.658Z,11.59
2017-04-09T01:22:53.739Z,11.51
2017-04-09T01:23:19.821Z,11.55
2017-04-09T01:23:45.899Z,11.54
2017-04-09T01:24:12.025Z,11.5
2017-04-09T01:24:38.106Z,11.45
2017-04-09T01:25:04.186Z,11.5
2017-04-09T01:25:30.263Z,11.48
2017-04-09T01:25:56.367Z,11.51
2017-04-09T01:26:22.446Z,11.54
2017-04-09T01:26:48.526Z,11.48
2017-04-09T01:27:14.609Z,11.59
2017-04-09T01:27:40.715Z,11.5
2017-04-09T01:28:06.841Z,11.52
2017-04-09T01:28:32.920Z,11.5
2017-04-09T01:28:59.000Z,11.51
2017-04-09T01:29:25.082Z,11.47
2017-04-09T01:29:51.160Z,11.51
2017-04-09T01:30:17.248Z,11.51
2017-04-09T01:30:43.321Z,11.57
2017-04-09T01:31:09.401Z,11.51
2017-04-09T01:31:35.500Z,11.48
2017-04-09T01:32:01.583Z,11.63
2017-04-09T01:32:27.664Z,11.59
2017-04-09T01:32:53.744Z,11.63
2017-04-09T01:33:19.826Z,11.59
2017-04-09T01:33:45.908Z,11.5
2017-04-09T01:34:12.012Z,11.45
2017-04-09T01:34:38.092Z,11.47
2017-04-09T01:35:04.170Z,11.5
2017-04-09T01:35:30.275Z,11.52
2017-04-09T01:35:56.356Z,11.47
2017-04-09T01:36:22.434Z,11.55
2017-04-09T01:36:48.514Z,11.47
2017-04-09T01:37:14.596Z,11.43
2017-04-09T01:37:40.673Z,11.47
2017-04-09T01:38:06.753Z,11.47
2017-04-09T01:38:32.855Z,11.47
2017-04-09T01:38:58.934Z,11.47
2017-04-09T01:39:25.014Z,11.5
2017-04-09T01:39:51.095Z,11.48
2017-04-09T01:40:17.175Z,11.5
2017-04-09T01:40:43.253Z,11.41
2017-04-09T01:41:09.333Z,11.4
2017-04-09T01:41:35.414Z,11.36
2017-04-09T01:42:01.493Z,11.41
2017-04-09T01:42:27.595Z,11.35
2017-04-09T01:42:53.697Z,11.41
2017-04-09T01:43:19.797Z,11.41
2017-04-09T01:43:45.900Z,11.36
2017-04-09T01:44:12.026Z,11.4
2017-04-09T01:44:38.128Z,11.4
2017-04-09T01:45:04.229Z,11.32
2017-04-09T01:45:30.310Z,11.26
2017-04-09T01:45:56.417Z,11.32
2017-04-09T01:46:22.496Z,11.29
2017-04-09T01:46:48.596Z,11.26
2017-04-09T01:47:14.677Z,11.27
2017-04-09T01:47:40.785Z,11.3
2017-04-09T01:48:06.912Z,11.32
2017-04-09T01:48:33.000Z,11.27
2017-04-09T01:48:59.143Z,11.25
2017-04-09T01:49:25.264Z,11.26
2017-04-09T01:49:51.369Z,11.23
2017-04-09T01:50:17.473Z,11.22
2017-04-09T01:50:43.555Z,11.25
2017-04-09T01:51:09.658Z,11.26
2017-04-09T01:51:35.736Z,11.23
2017-04-09T01:52:01.842Z,11.26
2017-04-09T01:52:27.923Z,11.32
2017-04-09T01:52:54.024Z,11.26
2017-04-09T01:53:20.106Z,11.26
2017-04-09T01:53:46.254Z,11.23
2017-04-09T01:54:12.357Z,11.25
2017-04-09T01:54:38.434Z,11.27
2017-04-09T01:55:04.583Z,11.23
2017-04-09T01:55:30.664Z,11.22
2017-04-09T01:55:56.768Z,11.22
2017-04-09T01:56:22.899Z,11.23
2017-04-09T01:56:48.978Z,11.18
2017-04-09T01:57:15.057Z,11.18
2017-04-09T01:57:41.169Z,11.26
2017-04-09T01:58:07.266Z,11.17
2017-04-09T01:58:33.372Z,11.18
2017-04-09T01:58:59.498Z,11.15
2017-04-09T01:59:25.602Z,11.15
2017-04-09T01:59:51.680Z,11.14
2017-04-09T02:00:17.760Z,11.04
2017-04-09T02:00:43.864Z,11.1
2017-04-09T02:01:09.967Z,11.08
2017-04-09T02:01:36.172Z,11.11
2017-04-09T02:02:02.277Z,11.08
2017-04-09T02:02:28.355Z,11.02
2017-04-09T02:02:54.458Z,11.11
2017-04-09T02:03:20.562Z,11
2017-04-09T02:03:46.687Z,11.1
2017-04-09T02:04:12.790Z,11.1
2017-04-09T02:04:38.871Z,10.99
2017-04-09T02:05:04.952Z,11
2017-04-09T02:05:31.033Z,11
2017-04-09T02:05:57.111Z,11.08
2017-04-09T02:06:23.191Z,11.12
2017-04-09T02:06:49.295Z,11.14
2017-04-09T02:07:15.377Z,11.1
2017-04-09T02:07:41.497Z,11.11
2017-04-09T02:08:07.601Z,11.07
2017-04-09T02:08:33.706Z,11
2017-04-09T02:08:59.808Z,11.12
2017-04-09T02:09:25.887Z,11.08
2017-04-09T02:09:51.991Z,11.1
2017-04-09T02:10:18.071Z,11.1
2017-04-09T02:10:44.150Z,10.96
2017-04-09T02:11:10.259Z,11.04
2017-04-09T02:11:36.333Z,11
2017-04-09T02:12:02.435Z,11.02
2017-04-09T02:12:28.538Z,11.04
2017-04-09T02:12:54.662Z,11.08
2017-04-09T02:13:20.811Z,11.1
2017-04-09T02:13:46.915Z,11.08
2017-04-09T02:14:13.017Z,11.04
2017-04-09T02:14:39.121Z,11
2017-04-09T02:15:05.200Z,10.94
2017-04-09T02:15:31.284Z,10.99
2017-04-09T02:15:57.362Z,11.07
2017-04-09T02:16:23.463Z,11.04
2017-04-09T02:16:49.568Z,10.93
2017-04-09T02:17:15.674Z,10.97
2017-04-09T02:17:41.754Z,11.05
2017-04-09T02:18:07.855Z,10.99
2017-04-09T02:18:33.958Z,10.97
2017-04-09T02:19:00.061Z,11
2017-04-09T02:19:26.167Z,10.99
2017-04-09T02:19:52.269Z,11.07
2017-04-09T02:20:18.371Z,11.08
2017-04-09T02:20:44.449Z,10.99
2017-04-09T02:21:10.557Z,10.99
2017-04-09T02:21:36.635Z,10.99
2017-04-09T02:22:02.736Z,10.97
2017-04-09T02:22:28.840Z,10.92
2017-04-09T02:22:54.963Z,10.99
2017-04-09T02:23:21.040Z,11.02
2017-04-09T02:23:47.119Z,10.92
2017-04-09T02:24:13.198Z,10.92
2017-04-09T02:24:39.277Z,10.94
2017-04-09T02:25:05.359Z,11.07
2017-04-09T02:25:31.464Z,10.94
2017-04-09T02:25:57.541Z,10.99
2017-04-09T02:26:23.620Z,10.94
2017-04-09T02:26:49.702Z,11
2017-04-09T02:27:15.807Z,11.05
2017-04-09T02:27:41.887Z,10.94
2017-04-09T02:28:07.965Z,10.94
2017-04-09T02:28:34.061Z,10.92
2017-04-09T02:29:00.152Z,10.94
2017-04-09T02:29:26.231Z,11.05
2017-04-09T02:29:52.312Z,10.87
2017-04-09T02:30:18.394Z,10.99
2017-04-09T02:30:44.523Z,10.89
2017-04-09T02:31:10.619Z,10.9
2017-04-09T02:31:36.746Z,10.86
2017-04-09T02:32:02.871Z,10.84
2017-04-09T02:32:28.995Z,10.93
2017-04-09T02:32:55.117Z,10.89
2017-04-09T02:33:21.195Z,10.79
2017-04-09T02:33:47.322Z,10.75
2017-04-09T02:34:13.423Z,10.75
2017-04-09T02:34:39.524Z,10.86
2017-04-09T02:35:05.607Z,10.87
2017-04-09T02:35:31.713Z,10.76
2017-04-09T02:35:57.795Z,10.94
2017-04-09T02:36:23.899Z,10.75
2017-04-09T02:36:50.023Z,10.9
2017-04-09T02:37:16.102Z,10.79
2017-04-09T02:37:42.184Z,10.94
2017-04-09T02:38:08.313Z,10.89
2017-04-09T02:38:34.396Z,10.76
2017-04-09T02:39:00.523Z,10.81
2017-04-09T02:39:26.602Z,10.84
2017-04-09T02:39:52.704Z,10.78
2017-04-09T02:40:18.785Z,10.79
2017-04-09T02:40:44.861Z,10.67
2017-04-09T02:41:10.940Z,10.71
2017-04-09T02:41:37.020Z,10.68
2017-04-09T02:42:03.097Z,10.69
2017-04-09T02:42:29.200Z,10.69
2017-04-09T02:42:55.282Z,10.74
2017-04-09T02:43:21.383Z,10.75
2017-04-09T02:43:47.510Z,10.71
2017-04-09T02:44:13.636Z,10.74
2017-04-09T02:44:39.717Z,10.74
2017-04-09T02:45:05.843Z,10.71
2017-04-09T02:45:31.928Z,10.75
2017-04-09T02:45:58.032Z,10.72
2017-04-09T02:46:24.111Z,10.74
2017-04-09T02:46:50.192Z,10.69
2017-04-09T02:47:16.274Z,10.67
2017-04-09T02:47:42.398Z,10.74
2017-04-09T02:48:08.545Z,10.63
2017-04-09T02:48:34.670Z,10.72
2017-04-09T02:49:00.795Z,10.68
2017-04-09T02:49:26.877Z,10.71
2017-04-09T02:49:53.002Z,10.67
2017-04-09T02:50:19.080Z,10.63
2017-04-09T02:50:45.163Z,10.71
2017-04-09T02:51:11.242Z,10.68
2017-04-09T02:51:37.341Z,10.63
2017-04-09T02:52:03.421Z,10.72
2017-04-09T02:52:29.504Z,10.64
2017-04-09T02:52:55.586Z,10.69
2017-04-09T02:53:21.669Z,10.59
2017-04-09T02:53:47.768Z,10.68
2017-04-09T02:54:13.849Z,10.57
2017-04-09T02:54:39.928Z,10.63
2017-04-09T02:55:06.028Z,10.61
2017-04-09T02:55:32.110Z,10.61
2017-04-09T02:55:58.191Z,10.53
2017-04-09T02:56:24.289Z,10.57
2017-04-09T02:56:50.370Z,10.51
2017-04-09T02:57:16.451Z,10.57
2017-04-09T02:57:42.529Z,10.63
2017-04-09T02:58:09.214Z,10.64
2017-04-09T02:58:35.294Z,10.59
2017-04-09T02:59:01.401Z,10.61
2017-04-09T03:05:42.851Z,10.53
2017-04-09T03:06:08.935Z,10.59
2017-04-09T03:06:35.040Z,10.57
2017-04-09T03:07:01.146Z,10.59
2017-04-09T03:07:27.227Z,10.48
2017-04-09T03:07:53.331Z,10.49
2017-04-09T03:08:19.434Z,10.6
2017-04-09T03:08:45.538Z,10.49
2017-04-09T03:09:11.793Z,10.54
2017-04-09T03:09:37.924Z,10.49
2017-04-09T03:10:04.031Z,10.44
2017-04-09T03:10:30.256Z,10.56
2017-04-09T03:10:56.335Z,10.56
2017-04-09T03:11:22.441Z,10.49
2017-04-09T03:11:48.524Z,10.48
2017-04-09T03:12:14.606Z,10.51
2017-04-09T03:12:40.688Z,10.46
2017-04-09T03:13:06.818Z,10.48
2017-04-09T03:13:32.921Z,10.49
2017-04-09T03:13:59.073Z,10.53
2017-04-09T03:14:25.199Z,10.53
2017-04-09T03:14:51.378Z,10.53
2017-04-09T03:15:17.457Z,10.53
2017-04-09T03:15:43.587Z,10.6
2017-04-09T03:16:09.771Z,10.56
2017-04-09T03:16:35.854Z,10.6
2017-04-09T03:17:01.983Z,10.61
2017-04-09T03:17:28.210Z,10.54
2017-04-09T03:17:54.314Z,10.48
2017-04-09T03:18:20.420Z,10.54
2017-04-09T03:18:46.541Z,10.42
2017-04-09T03:19:12.633Z,10.42
2017-04-09T03:19:38.784Z,10.49
2017-04-09T03:20:04.868Z,10.44
2017-04-09T03:20:30.950Z,10.37
2017-04-09T03:20:57.031Z,10.48
2017-04-09T03:21:23.136Z,10.41
2017-04-09T03:21:49.239Z,10.42
2017-04-09T03:22:15.325Z,10.41
2017-04-09T03:22:41.426Z,10.46
2017-04-09T03:23:07.532Z,10.41
2017-04-09T03:23:33.661Z,10.42
2017-04-09T03:23:59.768Z,10.48
2017-04-09T03:24:25.890Z,10.42
2017-04-09T03:24:52.015Z,10.38
2017-04-09T03:25:18.104Z,10.3
2017-04-09T03:25:44.226Z,10.44
2017-04-09T03:26:10.682Z,10.37
2017-04-09T03:26:36.764Z,10.28
2017-04-09T03:27:02.845Z,10.26
2017-04-09T03:27:28.950Z,10.35
2017-04-09T03:27:55.104Z,10.31
2017-04-09T03:28:21.229Z,10.2
2017-04-09T03:28:47.378Z,10.35
2017-04-09T03:29:13.482Z,10.31
2017-04-09T03:29:39.606Z,10.26
2017-04-09T03:30:05.732Z,10.35
2017-04-09T03:30:31.815Z,10.23
2017-04-09T03:30:57.895Z,10.25
2017-04-09T03:31:23.972Z,10.34
2017-04-09T03:31:50.054Z,10.31
2017-04-09T03:32:16.139Z,10.31
2017-04-09T03:32:42.264Z,10.37
2017-04-09T03:33:08.365Z,10.31
2017-04-09T03:33:34.447Z,10.26
2017-04-09T03:34:00.574Z,10.38
2017-04-09T03:34:26.725Z,10.26
2017-04-09T03:34:52.850Z,10.2
2017-04-09T03:35:18.958Z,10.28
2017-04-09T03:35:45.057Z,10.23
2017-04-09T03:36:11.182Z,10.28
2017-04-09T03:36:37.263Z,10.3
2017-04-09T03:37:03.393Z,10.26
2017-04-09T03:37:29.474Z,10.3
2017-04-09T03:37:55.627Z,10.3
2017-04-09T03:38:21.711Z,10.28
2017-04-09T03:38:47.818Z,10.2
2017-04-09T03:39:13.921Z,10.16
2017-04-09T03:39:40.000Z,10.23
2017-04-09T03:40:06.182Z,10.22
2017-04-09T03:40:32.260Z,10.22
2017-04-09T03:40:58.338Z,10.16
2017-04-09T03:41:24.442Z,10.2
2017-04-09T03:41:50.546Z,10.19
2017-04-09T03:42:16.650Z,10.28
2017-04-09T03:42:42.750Z,10.2
2017-04-09T03:43:08.858Z,10.26
2017-04-09T03:43:34.941Z,10.23
2017-04-09T03:44:01.045Z,10.3
2017-04-09T03:44:27.128Z,10.28
2017-04-09T03:44:53.230Z,10.2
2017-04-09T03:45:19.332Z,10.23
2017-04-09T03:45:45.415Z,10.17
2017-04-09T03:46:11.523Z,10.13
2017-04-09T03:46:37.601Z,10.16
2017-04-09T03:47:03.682Z,10.16
2017-04-09T03:47:29.762Z,10.04
2017-04-09T03:47:55.891Z,10.01
2017-04-09T03:48:21.972Z,10.04
2017-04-09T03:48:48.080Z,10.12
2017-04-09T03:49:14.233Z,10.1
2017-04-09T03:49:40.339Z,10.04
2017-04-09T03:50:06.464Z,10.12
2017-04-09T03:50:32.544Z,10.12
2017-04-09T03:50:58.623Z,10.2
2017-04-09T03:51:24.705Z,10.19
2017-04-09T03:51:50.788Z,10.15
2017-04-09T03:52:16.914Z,10.12
2017-04-09T03:52:42.970Z,10.1
2017-04-09T03:53:09.053Z,10.04
2017-04-09T03:53:35.157Z,10.07
2017-04-09T03:54:01.238Z,10.07
2017-04-09T03:54:27.318Z,10.1
2017-04-09T03:54:53.423Z,10.04
2017-04-09T03:55:19.527Z,10.12
2017-04-09T03:55:45.609Z,10.1
2017-04-09T03:56:12.041Z,10.04
2017-04-09T03:56:38.123Z,10.02
2017-04-09T03:57:04.228Z,10.01
2017-04-09T03:57:30.331Z,10.09
2017-04-09T03:57:56.435Z,10.09
2017-04-09T03:58:22.538Z,10.1
2017-04-09T03:58:48.621Z,10.09
2017-04-09T03:59:14.750Z,10.05
2017-04-09T03:59:40.831Z,10.05
2017-04-09T04:00:06.933Z,10.09
2017-04-09T04:00:33.012Z,10.04
2017-04-09T04:00:59.116Z,10.04
2017-04-09T04:01:25.199Z,10.09
2017-04-09T04:01:51.348Z,10.07
2017-04-09T04:02:17.426Z,9.94
2017-04-09T04:02:43.531Z,10.04
2017-04-09T04:03:09.681Z,10.13
2017-04-09T04:03:35.786Z,10.04
2017-04-09T04:04:01.913Z,10.12
2017-04-09T04:04:27.997Z,9.97
2017-04-09T04:04:54.077Z,10.09
2017-04-09T04:05:20.179Z,9.98
2017-04-09T04:05:46.259Z,9.98
2017-04-09T04:06:12.384Z,9.98
2017-04-09T04:06:38.487Z,10.04
2017-04-09T04:07:04.566Z,10.07
2017-04-09T04:07:30.646Z,10.1
2017-04-09T04:07:56.751Z,10.05
2017-04-09T04:08:22.832Z,10.04
2017-04-09T04:08:48.983Z,10.07
2017-04-09T04:09:15.112Z,10.07
2017-04-09T04:09:41.243Z,10.05
2017-04-09T04:10:07.349Z,10.16
2017-04-09T04:10:33.432Z,10.05
2017-04-09T04:10:59.510Z,10.07
2017-04-09T04:11:25.591Z,10.02
2017-04-09T04:11:51.673Z,9.99
2017-04-09T04:12:17.752Z,9.97
2017-04-09T04:12:43.855Z,9.99
2017-04-09T04:13:09.937Z,10.04
2017-04-09T04:13:36.020Z,9.97
2017-04-09T04:14:02.104Z,9.95
2017-04-09T04:14:28.186Z,9.97
2017-04-09T04:14:54.264Z,9.99
2017-04-09T04:15:20.342Z,9.97
2017-04-09T04:15:46.423Z,9.95
2017-04-09T04:16:12.579Z,9.92
2017-04-09T04:16:38.679Z,9.98
2017-04-09T04:17:04.762Z,9.98
2017-04-09T04:17:30.865Z,9.95
2017-04-09T04:17:56.945Z,9.95
2017-04-09T04:18:23.032Z,9.84
2017-04-09T04:18:49.129Z,9.94
2017-04-09T04:19:15.231Z,9.91
2017-04-09T04:19:41.352Z,9.94
2017-04-09T04:20:07.443Z,9.92
2017-04-09T04:20:33.524Z,9.95
2017-04-09T04:20:59.630Z,9.95
2017-04-09T04:21:25.831Z,9.92
2017-04-09T04:21:51.914Z,9.82
2017-04-09T04:22:18.018Z,9.95
2017-04-09T04:22:44.122Z,9.84
2017-04-09T04:23:10.225Z,9.92
2017-04-09T04:23:36.304Z,9.86
2017-04-09T04:24:02.432Z,9.92
2017-04-09T04:24:28.514Z,9.92
2017-04-09T04:24:54.617Z,9.84
2017-04-09T04:25:20.698Z,9.87
2017-04-09T04:25:46.779Z,9.86
2017-04-09T04:26:12.861Z,9.94
2017-04-09T04:26:39.314Z,9.97
2017-04-09T04:27:05.396Z,9.92
2017-04-09T04:27:31.501Z,9.87
2017-04-09T04:27:57.606Z,9.87
2017-04-09T04:28:23.732Z,9.79
2017-04-09T04:28:49.814Z,9.8
2017-04-09T04:29:15.919Z,9.83
2017-04-09T04:29:42.024Z,9.86
2017-04-09T04:30:08.129Z,9.82
2017-04-09T04:30:34.212Z,9.87
2017-04-09T04:31:00.294Z,9.8
2017-04-09T04:31:26.374Z,9.8
2017-04-09T04:31:52.455Z,9.79
2017-04-09T04:32:18.536Z,9.89
2017-04-09T04:32:44.613Z,9.79
2017-04-09T04:33:10.742Z,9.79
2017-04-09T04:33:36.820Z,9.86
2017-04-09T04:34:02.901Z,9.84
2017-04-09T04:34:28.983Z,9.89
2017-04-09T04:34:55.065Z,9.89
2017-04-09T04:35:21.143Z,9.87
2017-04-09T04:35:47.247Z,9.89
2017-04-09T04:36:13.326Z,9.84
2017-04-09T04:36:39.404Z,9.86
2017-04-09T04:37:05.485Z,9.89
2017-04-09T04:37:31.570Z,9.84
2017-04-09T04:37:57.653Z,9.8
2017-04-09T04:38:23.757Z,9.8
2017-04-09T04:38:49.836Z,9.79
2017-04-09T04:39:15.942Z,9.79
2017-04-09T04:39:42.025Z,9.65
2017-04-09T04:40:08.107Z,9.66
2017-04-09T04:40:34.216Z,9.62
2017-04-09T04:41:00.293Z,9.62
2017-04-09T04:41:26.395Z,9.68
2017-04-09T04:41:52.521Z,9.65
2017-04-09T04:42:18.624Z,9.77
2017-04-09T04:42:44.729Z,9.65
2017-04-09T04:43:10.835Z,9.62
2017-04-09T04:43:36.940Z,9.64
2017-04-09T04:44:03.068Z,9.69
2017-04-09T04:44:29.194Z,9.66
2017-04-09T04:44:55.281Z,9.64
2017-04-09T04:45:21.356Z,9.64
2017-04-09T04:45:47.440Z,9.59
2017-04-09T04:46:13.524Z,9.66
2017-04-09T04:46:39.670Z,9.51
2017-04-09T04:47:05.797Z,9.56
2017-04-09T04:47:31.925Z,9.51
2017-04-09T04:47:58.030Z,9.61
2017-04-09T04:48:24.156Z,9.51
2017-04-09T04:48:50.238Z,9.48
2017-04-09T04:49:16.367Z,9.5
2017-04-09T04:49:42.595Z,9.48
2017-04-09T04:50:08.677Z,9.43
2017-04-09T04:50:34.799Z,9.5
2017-04-09T04:51:00.882Z,9.56
2017-04-09T04:51:27.036Z,9.44
2017-04-09T04:51:53.119Z,9.58
2017-04-09T04:52:19.224Z,9.54
2017-04-09T04:52:45.332Z,9.5
2017-04-09T04:53:11.430Z,9.5
2017-04-09T04:53:37.558Z,9.54
2017-04-09T04:54:03.640Z,9.56
2017-04-09T04:54:29.768Z,9.58
2017-04-09T04:54:55.874Z,9.56
2017-04-09T04:55:21.956Z,9.59
2017-04-09T04:55:48.038Z,9.61
2017-04-09T04:56:14.119Z,9.55
2017-04-09T04:56:40.221Z,9.58
2017-04-09T04:57:06.303Z,9.64
2017-04-09T04:57:32.410Z,9.55
2017-04-09T04:57:58.517Z,9.62
2017-04-09T04:58:24.619Z,9.72
2017-04-09T04:58:50.698Z,9.58
2017-04-09T04:59:16.801Z,9.68
2017-04-09T04:59:42.930Z,9.58
2017-04-09T05:00:09.037Z,9.66
2017-04-09T05:00:35.121Z,9.69
2017-04-09T05:01:01.204Z,9.76
2017-04-09T05:01:27.285Z,9.74
2017-04-09T05:01:53.364Z,9.76
2017-04-09T05:02:19.447Z,9.74
2017-04-09T05:02:45.553Z,9.86
2017-04-09T05:03:11.658Z,9.87
2017-04-09T05:03:37.739Z,9.84
2017-04-09T05:04:03.821Z,9.84
2017-04-09T05:04:29.898Z,9.79
2017-04-09T05:04:55.982Z,9.8
2017-04-09T05:05:22.066Z,9.87
2017-04-09T05:05:48.197Z,9.89
2017-04-09T05:06:14.275Z,9.86
2017-04-09T05:06:40.356Z,9.87
2017-04-09T05:07:06.586Z,9.86
2017-04-09T05:07:32.668Z,9.91
2017-04-09T05:07:58.771Z,9.8
2017-04-09T05:08:24.872Z,9.97
2017-04-09T05:08:51.006Z,9.91
2017-04-09T05:09:17.087Z,9.82
2017-04-09T05:09:43.168Z,9.92
2017-04-09T05:10:09.252Z,9.97
2017-04-09T05:10:35.378Z,9.89
2017-04-09T05:11:01.478Z,9.89
2017-04-09T05:11:27.557Z,9.8
2017-04-09T05:11:53.636Z,9.83
2017-04-09T05:12:19.765Z,9.79
2017-04-09T05:12:45.894Z,9.82
2017-04-09T05:13:11.975Z,9.83
2017-04-09T05:13:38.099Z,9.94
2017-04-09T05:14:04.224Z,9.92
2017-04-09T05:14:30.328Z,9.79
2017-04-09T05:14:56.434Z,9.89
2017-04-09T05:15:22.565Z,9.91
2017-04-09T05:15:48.645Z,9.94
2017-04-09T05:16:14.752Z,10.01
2017-04-09T05:16:40.859Z,9.95
2017-04-09T05:17:06.937Z,9.92
2017-04-09T05:17:33.021Z,10.02
2017-04-09T05:17:59.149Z,9.97
2017-04-09T05:18:25.376Z,9.92
2017-04-09T05:18:51.502Z,9.86
2017-04-09T05:19:17.583Z,9.79
2017-04-09T05:19:43.686Z,9.79
2017-04-09T05:20:09.769Z,9.79
2017-04-09T05:20:35.852Z,9.64
2017-04-09T05:21:01.956Z,9.69
2017-04-09T05:21:28.036Z,9.69
2017-04-09T05:21:54.114Z,9.73
2017-04-09T05:22:20.220Z,9.74
2017-04-09T05:22:46.304Z,9.82
2017-04-09T05:23:12.385Z,9.79
2017-04-09T05:23:38.586Z,9.82
2017-04-09T05:24:04.692Z,9.83
2017-04-09T05:24:30.773Z,9.87
2017-04-09T05:24:57.003Z,9.94
2017-04-09T05:25:23.085Z,9.92
2017-04-09T05:25:49.167Z,9.97
2017-04-09T05:26:15.250Z,9.98
2017-04-09T05:26:41.330Z,10.02
2017-04-09T05:27:07.432Z,10.09
2017-04-09T05:27:33.513Z,10.05
2017-04-09T05:27:59.595Z,10.02
2017-04-09T05:28:25.702Z,10.12
2017-04-09T05:28:51.806Z,10.09
2017-04-09T05:29:17.897Z,10.16
2017-04-09T05:29:43.989Z,10.1
2017-04-09T05:30:10.072Z,10.25
2017-04-09T05:30:36.154Z,10.26
2017-04-09T05:31:02.236Z,10.3
2017-04-09T05:31:28.340Z,10.25
2017-04-09T05:31:54.446Z,10.3
2017-04-09T05:32:20.528Z,10.2
2017-04-09T05:32:46.612Z,10.23
2017-04-09T05:33:12.695Z,10.3
2017-04-09T05:33:38.776Z,10.2
2017-04-09T05:34:04.856Z,10.16
2017-04-09T05:34:30.936Z,10.25
2017-04-09T05:34:57.019Z,10.3
2017-04-09T05:35:23.124Z,10.26
2017-04-09T05:35:49.204Z,10.3
2017-04-09T05:36:15.335Z,10.3
2017-04-09T05:36:41.415Z,10.25
2017-04-09T05:37:07.519Z,10.22
2017-04-09T05:37:33.604Z,10.26
2017-04-09T05:37:59.758Z,10.35
2017-04-09T05:38:25.864Z,10.34
2017-04-09T05:38:51.946Z,10.37
2017-04-09T05:39:18.026Z,10.31
2017-04-09T05:39:44.131Z,10.31
2017-04-09T05:40:10.211Z,10.37
2017-04-09T05:40:36.293Z,10.3
2017-04-09T05:41:02.398Z,10.2
2017-04-09T05:41:28.498Z,10.26
2017-04-09T05:41:54.624Z,10.19
2017-04-09T05:42:20.704Z,10.2
2017-04-09T05:42:46.785Z,10.28
2017-04-09T05:43:13.015Z,10.26
2017-04-09T05:43:39.094Z,10.34
2017-04-09T05:44:05.177Z,10.25
2017-04-09T05:44:31.261Z,10.22
2017-04-09T05:44:57.338Z,10.35
2017-04-09T05:45:23.420Z,10.3
2017-04-09T05:45:49.504Z,10.28
2017-04-09T05:46:15.586Z,10.33
2017-04-09T05:46:41.668Z,10.2